createdAt,value
2023-12-18T00:00:29.228Z,3.30
2023-12-18T00:02:56.084Z,2.85
2023-12-18T00:05:23.386Z,2.72
2023-12-18T00:07:50.322Z,2.75
2023-12-18T00:10:17.200Z,1.98
2023-12-18T00:12:44.063Z,2.77
2023-12-18T00:15:11.327Z,2.63
2023-12-18T00:17:38.415Z,2.60
2023-12-18T00:20:05.952Z,2.30
2023-12-18T00:22:32.852Z,3.00
2023-12-18T00:24:59.750Z,2.67
2023-12-18T00:27:27.002Z,3.15
2023-12-18T00:29:53.913Z,1.95
2023-12-18T00:32:21.273Z,2.65
2023-12-18T00:34:48.315Z,2.75
2023-12-18T00:37:15.545Z,1.97
2023-12-18T00:39:42.416Z,1.58
2023-12-18T00:42:09.610Z,1.55
2023-12-18T00:44:36.501Z,2.53
2023-12-18T00:47:03.345Z,1.95
2023-12-18T00:49:30.248Z,2.23
2023-12-18T00:51:57.116Z,1.70
2023-12-18T00:54:24.027Z,1.10
2023-12-18T00:56:50.958Z,1.45
2023-12-18T00:59:17.864Z,1.70
2023-12-18T01:01:45.021Z,1.58
2023-12-18T01:04:11.951Z,2.30
2023-12-18T01:06:38.885Z,0.95
2023-12-18T01:09:05.772Z,1.75
2023-12-18T01:11:33.026Z,2.03
2023-12-18T01:13:59.829Z,1.63
2023-12-18T01:16:26.626Z,1.90
2023-12-18T01:18:53.668Z,2.28
2023-12-18T01:21:20.536Z,1.00
2023-12-18T01:23:47.420Z,2.35
2023-12-18T01:26:14.304Z,2.13
2023-12-18T01:28:41.344Z,2.20
2023-12-18T01:31:08.302Z,1.73
2023-12-18T01:33:36.137Z,1.83
2023-12-18T01:36:03.141Z,1.63
2023-12-18T01:38:29.996Z,1.27
2023-12-18T01:40:56.823Z,2.15
2023-12-18T01:43:25.036Z,2.03
2023-12-18T01:45:59.548Z,2.80
2023-12-18T01:48:27.904Z,1.80
2023-12-18T01:50:55.836Z,1.90
2023-12-18T01:53:31.059Z,2.53
2023-12-18T01:55:58.934Z,1.63
2023-12-18T01:58:26.332Z,0.93
2023-12-18T02:00:54.004Z,2.20
2023-12-18T02:03:22.056Z,1.20
2023-12-18T02:05:49.137Z,2.55
2023-12-18T02:08:16.024Z,1.42
2023-12-18T02:10:43.880Z,1.70
2023-12-18T02:13:10.753Z,1.70
2023-12-18T02:15:38.128Z,1.80
2023-12-18T02:18:05.476Z,1.50
2023-12-18T02:20:32.323Z,1.75
2023-12-18T02:22:59.173Z,1.00
2023-12-18T02:25:26.184Z,1.75
2023-12-18T02:27:53.064Z,1.95
2023-12-18T02:30:21.399Z,1.33
2023-12-18T02:32:48.454Z,1.55
2023-12-18T02:35:15.497Z,1.08
2023-12-18T02:37:42.831Z,1.10
2023-12-18T02:40:10.140Z,1.70
2023-12-18T02:42:37.195Z,2.17
2023-12-18T02:45:04.630Z,2.30
2023-12-18T02:47:31.541Z,2.20
2023-12-18T02:49:58.406Z,1.48
2023-12-18T02:52:25.250Z,1.80
2023-12-18T02:54:52.130Z,1.80
2023-12-18T02:57:19.033Z,1.83
2023-12-18T02:59:45.925Z,1.80
2023-12-18T03:02:12.712Z,1.50
2023-12-18T03:04:43.339Z,2.28
2023-12-18T03:07:11.031Z,3.08
2023-12-18T03:09:38.090Z,1.88
2023-12-18T03:12:05.706Z,1.83
2023-12-18T03:14:32.598Z,2.03
2023-12-18T03:16:59.670Z,1.80
2023-12-18T03:19:26.549Z,1.92
2023-12-18T03:21:53.833Z,0.75
2023-12-18T03:24:23.924Z,1.63
2023-12-18T03:26:51.077Z,2.08
2023-12-18T03:29:18.003Z,1.13
2023-12-18T03:31:44.853Z,1.17
2023-12-18T03:34:11.805Z,1.40
2023-12-18T03:36:38.685Z,1.77
2023-12-18T03:39:05.542Z,1.80
2023-12-18T03:41:32.405Z,1.87
2023-12-18T03:43:59.292Z,1.48
2023-12-18T03:46:26.121Z,1.13
2023-12-18T03:48:53.110Z,2.10
2023-12-18T03:51:20.147Z,1.42
2023-12-18T03:53:46.991Z,1.42
2023-12-18T03:56:13.787Z,2.45
2023-12-18T03:58:40.620Z,2.38
2023-12-18T04:01:07.511Z,1.45
2023-12-18T04:03:35.000Z,1.40
2023-12-18T04:06:02.418Z,0.97
2023-12-18T04:08:29.241Z,1.60
2023-12-18T04:10:56.075Z,1.23
2023-12-18T04:13:22.945Z,1.70
2023-12-18T04:15:49.789Z,1.33
2023-12-18T04:18:16.827Z,1.40
2023-12-18T04:20:43.977Z,1.10
2023-12-18T04:23:11.933Z,1.50
2023-12-18T04:25:38.797Z,1.40
2023-12-18T04:28:06.106Z,1.98
2023-12-18T04:30:33.103Z,2.70
2023-12-18T04:33:00.060Z,1.90
2023-12-18T04:35:27.089Z,1.50
2023-12-18T04:37:53.975Z,1.77
2023-12-18T04:40:20.793Z,1.83
2023-12-18T04:42:47.854Z,1.20
2023-12-18T04:45:14.849Z,1.60
2023-12-18T04:47:41.951Z,1.80
2023-12-18T04:50:09.025Z,1.10
2023-12-18T04:52:35.901Z,2.05
2023-12-18T04:55:02.726Z,2.20
2023-12-18T04:57:29.627Z,2.45
2023-12-18T04:59:56.555Z,2.63
2023-12-18T05:02:23.437Z,1.90
2023-12-18T05:04:50.413Z,2.03
2023-12-18T05:07:17.473Z,1.40
2023-12-18T05:09:46.564Z,1.75
2023-12-18T05:12:14.253Z,2.03
2023-12-18T05:14:41.131Z,1.92
2023-12-18T05:17:07.934Z,4.03
2023-12-18T05:19:34.942Z,2.90
2023-12-18T05:22:01.802Z,2.10
2023-12-18T05:24:28.654Z,1.88
2023-12-18T05:26:55.613Z,2.22
2023-12-18T05:29:22.429Z,2.28
2023-12-18T05:31:49.269Z,2.37
2023-12-18T05:34:16.750Z,2.42
2023-12-18T05:36:43.715Z,2.10
2023-12-18T05:39:10.608Z,2.10
2023-12-18T05:41:37.624Z,2.00
2023-12-18T05:44:04.549Z,1.97
2023-12-18T05:46:31.387Z,1.75
2023-12-18T05:48:58.312Z,2.35
2023-12-18T05:51:25.230Z,1.92
2023-12-18T05:53:52.117Z,2.28
2023-12-18T05:56:19.002Z,1.53
2023-12-18T05:58:45.855Z,1.73
2023-12-18T06:01:12.778Z,2.22
2023-12-18T06:03:39.781Z,2.03
2023-12-18T06:06:06.781Z,1.88
2023-12-18T06:08:33.740Z,2.53
2023-12-18T06:11:00.648Z,2.72
2023-12-18T06:13:27.452Z,1.98
2023-12-18T06:15:54.281Z,2.70
2023-12-18T06:18:21.368Z,2.67
2023-12-18T06:20:48.215Z,1.02
2023-12-18T06:23:15.102Z,3.15
2023-12-18T06:25:42.001Z,2.10
2023-12-18T06:28:08.825Z,2.38
2023-12-18T06:30:35.790Z,1.88
2023-12-18T06:33:02.937Z,1.93
2023-12-18T06:35:29.870Z,2.25
2023-12-18T06:37:56.682Z,1.80
2023-12-18T06:40:23.558Z,1.77
2023-12-18T06:42:50.468Z,1.98
2023-12-18T06:45:17.406Z,1.43
2023-12-18T06:47:44.751Z,2.38
2023-12-18T06:50:11.532Z,1.50
2023-12-18T06:52:38.894Z,1.83
2023-12-18T06:55:06.112Z,1.92
2023-12-18T06:57:32.940Z,1.80
2023-12-18T06:59:59.949Z,1.48
2023-12-18T07:02:27.086Z,1.73
2023-12-18T07:04:54.091Z,2.15
2023-12-18T07:07:21.010Z,1.80
2023-12-18T07:09:47.993Z,1.10
2023-12-18T07:12:14.947Z,1.60
2023-12-18T07:14:43.514Z,1.35
2023-12-18T07:17:10.394Z,2.50
2023-12-18T07:19:39.742Z,1.80
2023-12-18T07:22:07.009Z,1.60
2023-12-18T07:24:35.449Z,1.75
2023-12-18T07:27:02.435Z,2.63
2023-12-18T07:29:29.274Z,2.63
2023-12-18T07:31:56.160Z,3.17
2023-12-18T07:34:23.102Z,2.23
2023-12-18T07:36:50.376Z,2.00
2023-12-18T07:39:17.398Z,2.42
2023-12-18T07:41:44.242Z,2.50
2023-12-18T07:44:11.069Z,2.17
2023-12-18T07:46:38.168Z,2.33
2023-12-18T07:49:05.235Z,2.10
2023-12-18T07:51:32.231Z,2.72
2023-12-18T07:53:59.224Z,3.25
2023-12-18T07:56:26.054Z,2.65
2023-12-18T07:58:52.853Z,1.97
2023-12-18T08:01:21.316Z,2.33
2023-12-18T08:03:48.979Z,2.30
2023-12-18T08:06:16.009Z,2.42
2023-12-18T08:08:42.892Z,3.10
2023-12-18T08:11:11.180Z,2.47
2023-12-18T08:13:38.128Z,3.00
2023-12-18T08:16:06.396Z,3.15
2023-12-18T08:18:33.520Z,2.90
2023-12-18T08:21:00.511Z,3.20
2023-12-18T08:23:27.671Z,3.53
2023-12-18T08:25:54.613Z,3.15
2023-12-18T08:28:21.538Z,3.33
2023-12-18T08:30:48.468Z,2.85
2023-12-18T08:33:15.571Z,2.25
2023-12-18T08:35:42.446Z,3.00
2023-12-18T08:38:09.251Z,3.60
2023-12-18T08:40:36.068Z,2.55
2023-12-18T08:43:03.163Z,2.53
2023-12-18T08:45:30.122Z,2.55
2023-12-18T08:47:57.150Z,2.97
2023-12-18T08:50:23.968Z,3.03
2023-12-18T08:52:50.963Z,2.17
2023-12-18T08:55:17.791Z,2.42
2023-12-18T08:57:44.661Z,3.80
2023-12-18T09:00:12.690Z,3.50
2023-12-18T09:02:39.679Z,2.88
2023-12-18T09:05:06.737Z,3.00
2023-12-18T09:07:33.594Z,4.05
2023-12-18T09:10:00.442Z,3.95
2023-12-18T09:12:27.379Z,3.33
2023-12-18T09:14:54.381Z,3.30
2023-12-18T09:17:21.226Z,2.13
2023-12-18T09:19:48.138Z,1.60
2023-12-18T09:22:15.004Z,2.47
2023-12-18T09:24:41.811Z,1.97
2023-12-18T09:27:08.811Z,2.13
2023-12-18T09:29:35.676Z,1.55
2023-12-18T09:32:02.646Z,1.38
2023-12-18T09:34:29.617Z,2.10
2023-12-18T09:36:56.588Z,2.40
2023-12-18T09:39:23.448Z,1.80
2023-12-18T09:41:50.349Z,1.60
2023-12-18T09:44:17.251Z,2.60
2023-12-18T09:46:44.116Z,0.80
2023-12-18T09:49:11.092Z,1.67
2023-12-18T09:51:40.320Z,1.33
2023-12-18T09:54:07.337Z,1.13
2023-12-18T09:56:34.818Z,0.70
2023-12-18T09:59:04.467Z,1.48
2023-12-18T10:01:31.422Z,1.07
2023-12-18T10:03:58.408Z,1.23
2023-12-18T10:06:25.364Z,1.42
2023-12-18T10:08:52.199Z,0.80
2023-12-18T10:11:27.365Z,1.50
2023-12-18T10:13:54.578Z,1.80
2023-12-18T10:16:22.343Z,1.27
2023-12-18T10:18:49.314Z,1.33
2023-12-18T10:21:22.427Z,1.45
2023-12-18T10:23:49.284Z,1.75
2023-12-18T10:26:16.098Z,1.10
2023-12-18T10:28:42.905Z,1.10
2023-12-18T10:31:09.969Z,1.33
2023-12-18T10:33:37.037Z,1.33
2023-12-18T10:36:06.049Z,1.33
2023-12-18T10:38:35.865Z,1.13
2023-12-18T10:41:05.143Z,1.00
2023-12-18T10:43:35.542Z,1.42
2023-12-18T10:46:03.718Z,1.30
2023-12-18T10:48:31.052Z,0.82
2023-12-18T10:50:58.779Z,0.70
2023-12-18T10:53:25.945Z,0.93
2023-12-18T10:55:54.098Z,1.17
2023-12-18T10:58:21.311Z,1.20
2023-12-18T11:00:50.672Z,0.80
2023-12-18T11:03:17.871Z,1.00
2023-12-18T11:05:45.326Z,1.00
2023-12-18T11:08:13.293Z,0.45
2023-12-18T11:10:41.621Z,0.73
2023-12-18T11:13:22.064Z,0.70
2023-12-18T11:15:57.562Z,1.00
2023-12-18T11:18:32.355Z,0.98
2023-12-18T11:20:59.384Z,1.02
2023-12-18T11:23:27.151Z,1.30
2023-12-18T11:25:55.932Z,0.98
2023-12-18T11:28:23.048Z,1.43
2023-12-18T11:30:50.044Z,1.83
2023-12-18T11:33:17.164Z,1.20
2023-12-18T11:35:50.331Z,1.23
2023-12-18T11:38:20.382Z,1.23
2023-12-18T11:40:48.521Z,1.27
2023-12-18T11:43:34.818Z,1.45
2023-12-18T11:46:14.486Z,1.00
2023-12-18T11:48:45.102Z,1.45
2023-12-18T11:51:15.214Z,2.17
2023-12-18T11:53:42.088Z,1.80
2023-12-18T11:56:09.010Z,1.70
2023-12-18T11:58:37.541Z,1.40
2023-12-18T12:01:04.747Z,1.23
2023-12-18T12:03:32.907Z,0.90
2023-12-18T12:06:00.409Z,1.30
2023-12-18T12:08:27.382Z,1.60
2023-12-18T12:10:56.502Z,1.50
2023-12-18T12:13:25.424Z,1.50
2023-12-18T12:16:02.371Z,1.50
2023-12-18T12:18:31.517Z,1.10
2023-12-18T12:20:59.037Z,2.95
2023-12-18T12:23:26.719Z,1.10
2023-12-18T12:25:57.848Z,1.15
2023-12-18T12:28:24.771Z,1.25
2023-12-18T12:30:51.905Z,1.40
2023-12-18T12:33:19.103Z,1.17
2023-12-18T12:35:46.204Z,1.30
2023-12-18T12:38:13.229Z,1.45
2023-12-18T12:40:44.539Z,1.80
2023-12-18T12:43:12.547Z,1.30
2023-12-18T12:45:40.407Z,1.55
2023-12-18T12:48:08.873Z,1.45
2023-12-18T12:50:39.747Z,1.00
2023-12-18T12:53:07.288Z,1.10
2023-12-18T12:55:34.124Z,1.23
2023-12-18T12:58:01.012Z,1.05
2023-12-18T13:00:29.590Z,1.10
2023-12-18T13:02:57.193Z,1.17
2023-12-18T13:05:24.189Z,0.95
2023-12-18T13:07:51.101Z,1.20
2023-12-18T13:10:19.015Z,1.58
2023-12-18T13:12:45.908Z,1.38
2023-12-18T13:15:12.844Z,1.38
2023-12-18T13:17:39.913Z,0.98
2023-12-18T13:20:12.715Z,1.40
2023-12-18T13:22:46.223Z,1.20
2023-12-18T13:25:13.020Z,1.50
2023-12-18T13:27:39.949Z,1.52
2023-12-18T13:30:07.516Z,1.30
2023-12-18T13:32:34.512Z,1.37
2023-12-18T13:35:01.465Z,1.30
2023-12-18T13:37:28.311Z,1.27
2023-12-18T13:39:55.425Z,1.85
2023-12-18T13:42:22.422Z,0.90
2023-12-18T13:44:49.303Z,0.80
2023-12-18T13:47:16.281Z,1.58
2023-12-18T13:49:43.208Z,1.75
2023-12-18T13:52:10.089Z,1.70
2023-12-18T13:54:37.023Z,1.70
2023-12-18T13:57:04.033Z,1.45
2023-12-18T13:59:30.980Z,1.40
2023-12-18T14:01:57.854Z,2.30
2023-12-18T14:04:24.674Z,1.80
2023-12-18T14:06:51.924Z,2.07
2023-12-18T14:09:19.294Z,1.63
2023-12-18T14:11:47.488Z,2.00
2023-12-18T14:14:14.522Z,2.13
2023-12-18T14:16:41.377Z,2.05
2023-12-18T14:19:08.294Z,2.40
2023-12-18T14:21:35.190Z,2.10
2023-12-18T14:24:02.020Z,1.83
2023-12-18T14:26:28.882Z,2.13
2023-12-18T14:28:55.714Z,1.98
2023-12-18T14:31:22.589Z,2.33
2023-12-18T14:33:49.612Z,1.85
2023-12-18T14:36:16.704Z,1.55
2023-12-18T14:38:43.596Z,1.20
2023-12-18T14:41:10.407Z,1.80
2023-12-18T14:43:37.217Z,1.60
2023-12-18T14:46:04.240Z,1.83
2023-12-18T14:48:35.651Z,2.05
2023-12-18T14:51:03.609Z,2.35
2023-12-18T14:53:30.401Z,2.15
2023-12-18T14:55:57.345Z,1.70
2023-12-18T14:58:24.260Z,1.60
2023-12-18T15:00:51.191Z,1.15
2023-12-18T15:03:18.250Z,2.00
2023-12-18T15:05:45.219Z,1.50
2023-12-18T15:08:12.071Z,1.43
2023-12-18T15:10:38.891Z,1.75
2023-12-18T15:13:05.910Z,2.20
2023-12-18T15:15:32.775Z,1.60
2023-12-18T15:17:59.811Z,2.13
2023-12-18T15:20:26.828Z,2.30
2023-12-18T15:22:53.622Z,1.65
2023-12-18T15:25:20.406Z,1.98
2023-12-18T15:27:47.657Z,2.05
2023-12-18T15:30:14.785Z,1.42
2023-12-18T15:32:41.985Z,1.97
2023-12-18T15:35:09.901Z,1.55
2023-12-18T15:37:36.851Z,1.90
2023-12-18T15:40:04.368Z,2.22
2023-12-18T15:42:31.369Z,1.98
2023-12-18T15:44:58.205Z,2.10
2023-12-18T15:47:25.019Z,2.80
2023-12-18T15:49:51.954Z,1.70
2023-12-18T15:52:18.856Z,2.60
2023-12-18T15:54:45.705Z,2.63
2023-12-18T15:57:12.551Z,1.70
2023-12-18T15:59:39.452Z,1.25
2023-12-18T16:02:06.390Z,1.45
2023-12-18T16:04:33.279Z,1.58
2023-12-18T16:07:00.193Z,1.75
2023-12-18T16:09:27.394Z,2.50
2023-12-18T16:11:54.321Z,2.30
2023-12-18T16:14:21.345Z,2.92
2023-12-18T16:16:48.324Z,2.75
2023-12-18T16:19:16.109Z,3.65
2023-12-18T16:21:43.101Z,2.53
2023-12-18T16:24:09.900Z,3.05
2023-12-18T16:26:36.883Z,3.33
2023-12-18T16:29:06.753Z,2.90
2023-12-18T16:31:33.628Z,3.63
2023-12-18T16:34:00.869Z,2.87
2023-12-18T16:36:27.844Z,2.92
2023-12-18T16:38:55.131Z,2.85
2023-12-18T16:41:22.181Z,3.17
2023-12-18T16:43:49.136Z,2.67
2023-12-18T16:46:16.064Z,2.23
2023-12-18T16:48:43.024Z,2.03
2023-12-18T16:51:09.931Z,3.50
2023-12-18T16:53:36.724Z,2.88
2023-12-18T16:56:03.653Z,2.67
2023-12-18T16:58:30.504Z,2.47
2023-12-18T17:00:57.427Z,3.28
2023-12-18T17:03:24.327Z,3.20
2023-12-18T17:05:51.534Z,3.20
2023-12-18T17:08:18.467Z,2.97
2023-12-18T17:10:45.624Z,3.13
2023-12-18T17:13:13.493Z,3.22
2023-12-18T17:15:42.468Z,3.42
2023-12-18T17:18:12.654Z,3.55
2023-12-18T17:20:39.561Z,3.00
2023-12-18T17:23:06.484Z,3.70
2023-12-18T17:25:33.343Z,3.45
2023-12-18T17:28:00.234Z,4.20
2023-12-18T17:30:27.246Z,3.30
2023-12-18T17:32:54.288Z,3.30
2023-12-18T17:35:21.134Z,3.10
2023-12-18T17:37:48.000Z,3.15
2023-12-18T17:40:15.016Z,4.18
2023-12-18T17:42:42.572Z,4.38
2023-12-18T17:45:10.097Z,5.22
2023-12-18T17:47:37.368Z,4.00
2023-12-18T17:50:05.209Z,3.45
2023-12-18T17:52:32.731Z,4.00
2023-12-18T17:54:59.642Z,3.90
2023-12-18T17:57:26.557Z,3.35
2023-12-18T17:59:55.117Z,4.20
2023-12-18T18:02:23.917Z,2.90
2023-12-18T18:04:50.868Z,3.30
2023-12-18T18:07:17.715Z,2.67
2023-12-18T18:09:44.710Z,3.10
2023-12-18T18:12:11.561Z,4.00
2023-12-18T18:14:38.375Z,3.00
2023-12-18T18:17:05.171Z,3.08
2023-12-18T18:19:32.285Z,3.10
2023-12-18T18:21:59.182Z,2.45
2023-12-18T18:24:26.087Z,3.60
2023-12-18T18:27:08.108Z,3.22
2023-12-18T18:29:37.517Z,2.83
2023-12-18T18:32:04.778Z,3.00
2023-12-18T18:34:31.900Z,3.78
2023-12-18T18:36:59.296Z,3.97
2023-12-18T18:39:26.162Z,3.95
2023-12-18T18:41:53.017Z,4.00
2023-12-18T18:44:19.906Z,2.53
2023-12-18T18:46:49.751Z,3.47
2023-12-18T18:49:17.007Z,4.33
2023-12-18T18:51:44.309Z,3.58
2023-12-18T18:54:11.202Z,4.35
2023-12-18T18:56:38.070Z,5.22
2023-12-18T18:59:05.101Z,6.30
2023-12-18T19:01:32.097Z,5.97
2023-12-18T19:03:59.200Z,6.72
2023-12-18T19:06:26.212Z,6.32
2023-12-18T19:08:53.061Z,7.00
2023-12-18T19:11:19.899Z,6.35
2023-12-18T19:13:46.719Z,7.53
2023-12-18T19:16:13.551Z,7.30
2023-12-18T19:18:40.536Z,7.57
2023-12-18T19:21:07.421Z,7.68
2023-12-18T19:23:36.172Z,7.13
2023-12-18T19:26:03.289Z,9.57
2023-12-18T19:28:30.234Z,7.80
2023-12-18T19:30:57.216Z,7.68
2023-12-18T19:33:24.417Z,7.45
2023-12-18T19:35:51.374Z,7.03
2023-12-18T19:38:18.271Z,6.03
2023-12-18T19:40:45.124Z,5.68
2023-12-18T19:43:12.106Z,4.15
2023-12-18T19:45:38.966Z,5.68
2023-12-18T19:48:06.001Z,5.97
2023-12-18T19:50:32.994Z,6.77
2023-12-18T19:52:59.896Z,6.07
2023-12-18T19:55:26.692Z,6.82
2023-12-18T19:57:53.657Z,6.13
2023-12-18T20:00:20.981Z,7.63
2023-12-18T20:02:47.841Z,4.67
2023-12-18T20:05:14.784Z,3.25
2023-12-18T20:07:41.668Z,4.53
2023-12-18T20:10:09.673Z,3.92
2023-12-18T20:12:36.558Z,5.72
2023-12-18T20:15:03.665Z,5.43
2023-12-18T20:17:30.484Z,7.50
2023-12-18T20:19:57.328Z,6.43
2023-12-18T20:22:25.040Z,7.10
2023-12-18T20:24:52.061Z,6.55
2023-12-18T20:27:19.609Z,7.37
2023-12-18T20:29:46.414Z,6.38
2023-12-18T20:32:13.204Z,5.75
2023-12-18T20:34:40.101Z,5.13
2023-12-18T20:37:07.015Z,6.10
2023-12-18T20:39:33.916Z,5.37
2023-12-18T20:42:00.904Z,4.97
2023-12-18T20:44:27.735Z,4.30
2023-12-18T20:46:55.085Z,4.50
2023-12-18T20:49:21.965Z,4.25
2023-12-18T20:51:48.816Z,4.10
2023-12-18T20:54:15.703Z,3.72
2023-12-18T20:56:42.538Z,3.92
2023-12-18T20:59:09.353Z,5.38
2023-12-18T21:01:36.853Z,5.22
2023-12-18T21:04:04.075Z,5.53
2023-12-18T21:06:31.014Z,6.78
2023-12-18T21:08:58.274Z,4.25
2023-12-18T21:11:25.097Z,4.95
2023-12-18T21:13:51.910Z,4.93
2023-12-18T21:16:18.734Z,6.57
2023-12-18T21:18:45.580Z,7.22
2023-12-18T21:21:14.468Z,5.80
2023-12-18T21:23:41.310Z,6.20
2023-12-18T21:26:08.198Z,6.97
2023-12-18T21:28:35.053Z,7.68
2023-12-18T21:31:02.055Z,9.32
2023-12-18T21:33:29.051Z,7.65
2023-12-18T21:35:55.925Z,3.35
2023-12-18T21:38:22.771Z,7.78
2023-12-18T21:40:49.592Z,7.13
2023-12-18T21:43:16.515Z,6.25
2023-12-18T21:45:43.462Z,6.90
2023-12-18T21:48:10.372Z,7.50
2023-12-18T21:50:39.929Z,7.00
2023-12-18T21:53:07.932Z,8.53
2023-12-18T21:55:34.753Z,7.38
2023-12-18T21:58:01.766Z,6.75
2023-12-18T22:00:28.728Z,7.35
2023-12-18T22:02:57.114Z,5.82
2023-12-18T22:05:24.102Z,7.22
2023-12-18T22:07:51.037Z,6.07
2023-12-18T22:10:18.079Z,5.65
2023-12-18T22:12:45.638Z,6.68
2023-12-18T22:15:12.910Z,5.18
2023-12-18T22:17:39.814Z,6.78
2023-12-18T22:20:09.977Z,2.78
2023-12-18T22:22:38.446Z,3.33
2023-12-18T22:25:05.772Z,4.28
2023-12-18T22:27:32.708Z,4.90
2023-12-18T22:29:59.552Z,3.92
2023-12-18T22:32:26.466Z,3.22
2023-12-18T22:34:53.506Z,4.57
2023-12-18T22:37:20.393Z,3.70
2023-12-18T22:39:47.455Z,5.18
2023-12-18T22:42:14.375Z,6.95
2023-12-18T22:44:41.183Z,5.80
2023-12-18T22:47:08.175Z,5.78
2023-12-18T22:49:35.378Z,6.03
2023-12-18T22:52:02.336Z,6.72
2023-12-18T22:54:29.249Z,6.20
2023-12-18T22:56:56.070Z,5.13
2023-12-18T22:59:22.899Z,4.25
2023-12-18T23:01:49.715Z,4.53
2023-12-18T23:04:16.658Z,4.65
2023-12-18T23:06:43.672Z,3.03
2023-12-18T23:09:10.482Z,3.75
2023-12-18T23:11:37.348Z,3.65
2023-12-18T23:14:04.177Z,4.30
2023-12-18T23:16:30.977Z,3.50
2023-12-18T23:18:57.906Z,3.57
2023-12-18T23:21:24.845Z,4.22
2023-12-18T23:23:51.669Z,3.65
2023-12-18T23:26:18.479Z,2.88
2023-12-18T23:28:45.286Z,3.78
2023-12-18T23:31:12.188Z,2.80
2023-12-18T23:33:39.290Z,2.60
2023-12-18T23:36:06.691Z,2.50
2023-12-18T23:38:33.475Z,2.35
2023-12-18T23:41:00.364Z,2.38
2023-12-18T23:43:27.186Z,3.08
2023-12-18T23:45:54.091Z,2.78
2023-12-18T23:48:21.096Z,3.38
2023-12-18T23:50:48.014Z,2.28
2023-12-18T23:53:14.845Z,1.95
2023-12-18T23:55:41.788Z,2.25
2023-12-18T23:58:08.812Z,2.13
